Time;durP1;ratioP1;P1;durP2;ratioP2;P2;SDS_P1;SDS_P2;PMS_P1;PMS_P2;Temp;Humidity;BMP_temperature;BMP_pressure;BME280_temperature;BME280_humidity;BME280_pressure;Samples;Min_cycle;Max_cycle;Signal;HPM_P1;HPM_P2
2022/04/17 00:01:28;;;;;;;40.77;16.80;;;;;;;9.00;100.00;98456.27;1745344;82;21550;-76
2022/04/17 00:03:56;;;;;;;81.53;29.60;;;;;;;9.02;100.00;98459.59;1745790;82;21031;-77
2022/04/17 00:06:23;;;;;;;49.50;19.30;;;;;;;9.03;100.00;98461.27;1716288;82;21051;-76
2022/04/17 00:08:52;;;;;;;70.70;24.77;;;;;;;9.04;100.00;98459.39;1745548;82;21004;-77
2022/04/17 00:11:19;;;;;;;28.67;11.73;;;;;;;9.06;100.00;98451.94;1750481;82;21030;-76
2022/04/17 00:13:48;;;;;;;24.80;9.87;;;;;;;9.06;100.00;98455.98;1725832;82;21582;-76
2022/04/17 00:16:15;;;;;;;36.83;13.87;;;;;;;9.06;100.00;98449.24;1729258;83;21554;-76
2022/04/17 00:18:43;;;;;;;34.10;14.03;;;;;;;9.06;100.00;98447.37;1733155;82;21023;-77
2022/04/17 00:21:12;;;;;;;46.73;15.80;;;;;;;9.07;100.00;98446.34;1745387;82;21495;-76
2022/04/17 00:23:39;;;;;;;24.80;10.57;;;;;;;9.07;100.00;98440.95;1745635;81;20987;-77
2022/04/17 00:26:09;;;;;;;39.37;16.43;;;;;;;9.07;100.00;98442.30;1733015;82;21074;-77
2022/04/17 00:28:38;;;;;;;42.53;16.80;;;;;;;9.07;100.00;98447.70;1742867;82;21066;-76
2022/04/17 00:31:06;;;;;;;42.50;16.43;;;;;;;9.07;100.00;98449.05;1800102;78;21061;-77
2022/04/17 00:33:35;;;;;;;27.80;11.83;;;;;;;9.07;100.00;98449.56;1793887;80;20983;-76
2022/04/17 00:36:04;;;;;;;29.37;11.57;;;;;;;9.04;100.00;98456.70;1780143;80;21015;-76
2022/04/17 00:38:31;;;;;;;35.53;14.20;;;;;;;9.02;100.00;98456.90;1766987;81;21030;-76
2022/04/17 00:40:58;;;;;;;20.57;9.50;;;;;;;9.03;100.00;98458.58;1779785;79;21015;-77
2022/04/17 00:43:30;;;;;;;29.43;17.70;;;;;;;9.03;100.00;98466.66;1766945;81;21023;-77
2022/04/17 00:45:58;;;;;;;;;;;;;;;8.97;100.00;98476.87;1782492;80;21023;-77
2022/04/17 00:48:26;;;;;;;28.40;18.07;;;;;;;8.84;100.00;98472.78;1779968;81;20098;-76
2022/04/17 00:50:56;;;;;;;33.47;19.20;;;;;;;8.76;100.00;98485.05;1779857;80;21015;-76
2022/04/17 00:53:23;;;;;;;25.10;16.90;;;;;;;8.66;100.00;98481.38;1768397;80;21062;-76
2022/04/17 00:55:50;;;;;;;20.83;11.53;;;;;;;8.54;100.00;98481.89;1782235;80;20991;-77
2022/04/17 00:58:18;;;;;;;21.40;10.93;;;;;;;8.48;100.00;98484.53;1782469;80;21007;-76
2022/04/17 01:00:45;;;;;;;25.67;10.70;;;;;;;8.42;100.00;98490.69;1769134;80;21043;-76
2022/04/17 01:03:14;;;;;;;19.90;8.70;;;;;;;8.38;100.00;98486.72;1782671;80;21492;-77
2022/04/17 01:05:43;;;;;;;16.90;7.00;;;;;;;8.30;100.00;98488.50;1769356;80;21116;-76
2022/04/17 01:08:11;;;;;;;13.50;6.20;;;;;;;8.26;100.00;98485.06;1769327;79;21496;-76
2022/04/17 01:10:40;;;;;;;23.10;7.90;;;;;;;8.22;100.00;98483.80;1782226;80;21055;-76
2022/04/17 01:13:10;;;;;;;20.60;7.93;;;;;;;8.21;100.00;98485.63;1769384;80;21011;-76
2022/04/17 01:15:38;;;;;;;27.63;10.33;;;;;;;8.20;100.00;98475.91;1769281;80;20987;-77
2022/04/17 01:18:06;;;;;;;29.97;10.47;;;;;;;8.17;100.00;98477.63;1782711;80;20967;-76
2022/04/17 01:20:40;;;;;;;18.23;7.40;;;;;;;8.14;100.00;98481.56;1769129;80;21559;-78
2022/04/17 01:28:40;;;;;;;28.23;11.23;;;;;;;8.02;100.00;98511.86;1773540;80;20998;-78
2022/04/17 01:31:09;;;;;;;11.23;5.67;;;;;;;7.94;100.00;98519.03;1724709;82;21066;-77
2022/04/17 01:33:37;;;;;;;26.43;10.30;;;;;;;7.86;100.00;98517.83;1724491;82;21101;-77
2022/04/17 01:36:05;;;;;;;18.50;7.43;;;;;;;7.78;100.00;98519.28;1745822;81;21010;-78
2022/04/17 01:38:34;;;;;;;25.43;11.00;;;;;;;7.68;100.00;98522.78;1767490;80;21018;-77
2022/04/17 01:41:04;;;;;;;23.93;10.10;;;;;;;7.58;100.00;98524.45;1767646;81;21034;-76
2022/04/17 01:43:31;;;;;;;19.40;7.33;;;;;;;7.51;100.00;98528.91;1768943;81;21065;-76
2022/04/17 01:45:58;;;;;;;19.03;7.93;;;;;;;7.44;100.00;98525.28;1768018;81;21045;-76
2022/04/17 01:48:25;;;;;;;15.23;6.63;;;;;;;7.37;100.00;98526.05;1700638;81;21073;-77
2022/04/17 01:50:52;;;;;;;10.60;5.23;;;;;;;7.31;100.00;98527.30;1767320;81;21017;-76
2022/04/17 01:53:20;;;;;;;16.33;7.63;;;;;;;7.26;100.00;98532.40;1792331;79;21037;-77
2022/04/17 01:55:47;;;;;;;22.47;9.30;;;;;;;7.21;100.00;98539.17;1816341;79;21526;-77
2022/04/17 01:58:14;;;;;;;17.13;7.20;;;;;;;7.16;100.00;98532.18;1785477;79;21041;-76
2022/04/17 02:00:41;;;;;;;7.60;5.10;;;;;;;7.14;100.00;98539.60;1816476;79;21001;-77
2022/04/17 02:03:08;;;;;;;11.43;5.90;;;;;;;7.09;100.00;98539.32;1816862;79;21016;-77
2022/04/17 02:05:37;;;;;;;10.13;5.43;;;;;;;7.07;100.00;98537.85;1785689;79;21005;-78
2022/04/17 02:08:06;;;;;;;8.47;4.87;;;;;;;7.04;100.00;98539.03;1816712;79;21041;-77
2022/04/17 02:10:34;;;;;;;21.13;8.83;;;;;;;6.99;100.00;98532.03;1816796;79;21060;-78
2022/04/17 02:13:01;;;;;;;5.50;4.00;;;;;;;6.95;100.00;98027.74;1816442;79;21099;-76
2022/04/17 02:15:30;;;;;;;10.30;5.53;;;;;;;6.90;100.00;98097.88;1816265;79;21533;-77
2022/04/17 02:17:59;;;;;;;19.60;7.57;;;;;;;6.84;100.00;98107.03;1785299;79;20977;-78
2022/04/17 02:20:26;;;;;;;18.43;7.00;;;;;;;6.82;100.00;98101.55;1816413;79;21271;-76
2022/04/17 02:22:55;;;;;;;14.53;6.27;;;;;;;6.78;100.00;98094.39;1816433;79;21048;-79
2022/04/17 02:25:25;;;;;;;13.67;5.80;;;;;;;6.72;100.00;98099.70;1816598;79;21355;-76
2022/04/17 02:27:54;;;;;;;17.90;6.30;;;;;;;6.67;100.00;98104.82;1800147;78;21038;-78
2022/04/17 02:30:21;;;;;;;18.10;6.63;;;;;;;6.64;100.00;98105.53;1756066;82;21066;-75
2022/04/17 02:32:48;;;;;;;7.07;4.07;;;;;;;6.63;100.00;98103.03;1732997;82;21054;-77
2022/04/17 02:35:16;;;;;;;15.93;5.77;;;;;;;6.62;100.00;98106.73;1727240;82;21523;-77
2022/04/17 02:37:44;;;;;;;19.80;6.73;;;;;;;6.57;100.00;98106.47;1748525;82;21085;-77
2022/04/17 02:40:12;;;;;;;20.27;6.97;;;;;;;6.52;100.00;98117.81;1748392;82;21329;-76
2022/04/17 02:42:40;;;;;;;15.07;5.57;;;;;;;6.52;100.00;98123.70;1748379;82;21027;-76
2022/04/17 02:45:09;;;;;;;20.20;6.80;;;;;;;6.49;100.00;98118.19;1748230;82;21050;-77
2022/04/17 02:47:44;;;;;;;8.00;4.30;;;;;;;6.46;100.00;98112.70;1748725;82;21030;-76
2022/04/17 02:50:14;;;;;;;10.33;4.70;;;;;;;6.46;100.00;98130.16;1748591;82;21038;-77
2022/04/17 02:52:42;;;;;;;29.87;10.30;;;;;;;6.44;100.00;98124.64;1751062;81;21042;-77
2022/04/17 02:55:10;;;;;;;10.30;4.60;;;;;;;6.42;100.00;98125.34;1741901;81;21078;-77
2022/04/17 02:57:38;;;;;;;10.63;4.70;;;;;;;6.39;100.00;98125.23;1768470;81;21026;-77
2022/04/17 03:00:08;;;;;;;23.37;8.00;;;;;;;6.35;100.00;98123.93;1768658;81;21085;-77
2022/04/17 03:05:36;;;;;;;31.07;11.30;;;;;;;6.30;100.00;98130.90;1757734;82;21559;-77
2022/04/17 03:08:15;;;;;;;13.57;6.00;;;;;;;6.33;100.00;98143.95;1758328;82;21049;-74
2022/04/17 03:10:43;;;;;;;9.43;4.87;;;;;;;6.29;100.00;98142.67;1691975;85;21077;-76
2022/04/17 03:13:10;;;;;;;28.70;10.60;;;;;;;6.24;100.00;98145.91;1706562;84;21625;-76
2022/04/17 03:15:38;;;;;;;13.10;5.60;;;;;;;6.21;100.00;98145.77;1735005;83;21084;-77
2022/04/17 03:18:08;;;;;;;19.53;7.10;;;;;;;6.19;100.00;98157.20;1735085;83;21021;-76
2022/04/17 03:20:35;;;;;;;13.10;5.43;;;;;;;6.17;100.00;98166.48;1735041;83;21045;-77
2022/04/17 03:23:03;;;;;;;16.23;6.50;;;;;;;6.17;100.00;98168.64;1734911;83;21092;-77
2022/04/17 03:25:32;;;;;;;32.90;10.97;;;;;;;6.17;100.00;98171.85;1734945;83;21111;-75
2022/04/17 03:28:01;;;;;;;17.70;6.67;;;;;;;6.18;100.00;98173.50;1710903;83;21056;-77
2022/04/17 03:30:29;;;;;;;23.80;7.90;;;;;;;6.17;100.00;98163.28;1711038;83;21025;-76
2022/04/17 03:32:57;;;;;;;33.30;10.60;;;;;;;6.17;100.00;98166.48;1713515;80;21044;-76
2022/04/17 03:35:26;;;;;;;12.90;5.00;;;;;;;6.15;100.00;98163.16;1758801;82;21034;-76
2022/04/17 03:37:53;;;;;;;21.47;6.97;;;;;;;6.14;100.00;98162.31;1758853;82;21006;-76
2022/04/17 03:40:22;;;;;;;21.43;6.37;;;;;;;6.16;100.00;98162.98;1733993;82;21029;-76
2022/04/17 03:42:50;;;;;;;19.83;7.10;;;;;;;6.15;100.00;98164.50;1754403;81;21007;-75
2022/04/17 03:45:19;;;;;;;17.43;6.07;;;;;;;6.15;100.00;98163.98;1754914;81;21007;-77
2022/04/17 03:47:46;;;;;;;16.97;6.23;;;;;;;6.17;100.00;98161.11;1780073;80;21029;-76
2022/04/17 03:50:15;;;;;;;10.17;5.07;;;;;;;6.14;100.00;98169.02;1779804;81;21011;-76
2022/04/17 03:52:47;;;;;;;10.43;4.80;;;;;;;6.13;100.00;98170.57;1779933;81;21504;-77
2022/04/17 03:55:15;;;;;;;13.97;5.30;;;;;;;6.12;100.00;98171.06;1779827;81;20955;-76
2022/04/17 03:57:43;;;;;;;9.37;4.10;;;;;;;6.12;100.00;98172.41;1779983;81;21448;-76
2022/04/17 04:00:13;;;;;;;16.80;5.10;;;;;;;6.15;100.00;98173.38;1780073;81;20983;-75
2022/04/17 04:02:40;;;;;;;20.40;5.83;;;;;;;6.17;100.00;98171.85;1766344;81;21011;-76
2022/04/17 04:05:10;;;;;;;9.73;4.30;;;;;;;6.15;100.00;98176.58;1780569;80;21055;-76
2022/04/17 04:07:38;;;;;;;18.23;5.67;;;;;;;6.12;100.00;98168.89;1769660;81;21027;-75
2022/04/17 04:10:08;;;;;;;6.07;3.60;;;;;;;6.11;100.00;98172.09;1769128;81;21074;-76
2022/04/17 04:12:37;;;;;;;16.33;5.03;;;;;;;6.13;100.00;98177.28;1769560;80;21012;-74
2022/04/17 04:15:07;;;;;;;14.87;5.10;;;;;;;6.14;100.00;98184.30;1734872;83;21004;-75
2022/04/17 04:17:34;;;;;;;9.73;4.37;;;;;;;6.16;100.00;98181.76;1734816;83;21086;-76
2022/04/17 04:20:04;;;;;;;16.77;6.00;;;;;;;6.20;100.00;98180.35;1734857;83;21075;-76
2022/04/17 04:22:32;;;;;;;16.03;5.30;;;;;;;6.22;100.00;98178.83;1735107;83;21084;-76
2022/04/17 04:25:00;;;;;;;12.77;4.27;;;;;;;6.24;100.00;98180.81;1709681;83;21151;-74
2022/04/17 04:30:14;;;;;;;12.83;4.87;;;;;;;6.30;100.00;98180.04;1702444;83;21145;-74
2022/04/17 04:32:53;;;;;;;11.70;5.07;;;;;;;6.29;100.00;98181.59;1726375;83;21562;-75
2022/04/17 04:35:21;;;;;;;12.97;5.30;;;;;;;6.26;100.00;98187.64;1726271;83;21116;-74
2022/04/17 04:37:50;;;;;;;15.20;5.63;;;;;;;6.21;100.00;98196.77;1702456;83;21034;-75
2022/04/17 04:40:18;;;;;;;9.03;4.30;;;;;;;6.22;100.00;98202.98;1702081;83;21105;-75
2022/04/17 04:42:45;;;;;;;10.50;4.50;;;;;;;6.21;100.00;98206.67;1702627;83;21075;-74
2022/04/17 04:47:58;;;;;;;13.37;4.83;;;;;;;6.23;100.00;98231.47;1762571;80;21027;-74
2022/04/17 04:50:27;;;;;;;6.63;3.87;;;;;;;6.23;100.00;98237.69;1762601;80;21015;-74
2022/04/17 04:52:54;;;;;;;11.43;4.70;;;;;;;6.25;100.00;98247.73;1762027;80;21072;-75
2022/04/17 04:55:22;;;;;;;11.20;4.13;;;;;;;6.25;100.00;98258.95;1754599;81;21011;-74
2022/04/17 04:57:49;;;;;;;8.50;4.30;;;;;;;6.25;100.00;98264.31;1774128;81;21055;-73
2022/04/17 05:00:18;;;;;;;9.57;4.07;;;;;;;6.26;100.00;98264.66;1774043;80;21019;-76
2022/04/17 05:02:45;;;;;;;10.20;4.43;;;;;;;6.20;100.00;98272.13;1754992;81;21098;-76
2022/04/17 05:05:12;;;;;;;7.20;3.57;;;;;;;6.19;100.00;98279.32;1774081;79;21066;-76
2022/04/17 05:07:40;;;;;;;12.37;4.17;;;;;;;6.19;100.00;98286.03;1774024;81;20984;-75
2022/04/17 05:10:08;;;;;;;7.20;4.00;;;;;;;6.19;100.00;98286.03;1774044;80;21050;-76
2022/04/17 05:12:38;;;;;;;8.20;3.90;;;;;;;6.22;100.00;98291.55;1754794;81;21563;-75
2022/04/17 05:15:11;;;;;;;11.93;4.27;;;;;;;6.24;100.00;98288.16;1774022;80;21508;-75
2022/04/17 05:17:37;;;;;;;8.40;4.10;;;;;;;6.26;100.00;98293.66;1774384;81;21094;-76
2022/04/17 05:20:09;;;;;;;11.60;4.37;;;;;;;6.29;100.00;98283.59;1773963;80;21567;-74
2022/04/17 05:22:39;;;;;;;11.22;4.28;;;;;;;6.31;100.00;98277.52;1757686;81;20975;-75
2022/04/17 05:25:08;;;;;;;7.37;3.80;;;;;;;6.35;100.00;98276.13;1775273;80;21031;-75
2022/04/17 05:27:36;;;;;;;8.03;3.97;;;;;;;6.35;100.00;98282.31;1755351;81;21045;-74
2022/04/17 05:30:04;;;;;;;10.47;4.37;;;;;;;6.38;100.00;98290.52;1775668;81;21027;-74
2022/04/17 05:32:32;;;;;;;13.27;4.57;;;;;;;6.44;100.00;98290.58;1756542;81;21050;-74
2022/04/17 05:35:01;;;;;;;10.27;4.47;;;;;;;6.52;100.00;98283.47;1756375;81;21503;-74
2022/04/17 05:37:28;;;;;;;12.30;5.03;;;;;;;6.61;100.00;98287.19;1756185;81;21089;-75
2022/04/17 05:39:58;;;;;;;7.43;4.87;;;;;;;6.70;100.00;98295.14;1775906;81;21030;-73
2022/04/17 05:42:27;;;;;;;8.10;4.53;;;;;;;6.76;100.00;98299.22;1775954;81;21496;-74
2022/04/17 05:44:54;;;;;;;8.77;4.63;;;;;;;6.84;100.00;98309.05;1756253;81;21105;-75
2022/04/17 05:47:21;;;;;;;7.33;4.20;;;;;;;6.87;100.00;98320.77;1756238;81;21536;-74
2022/04/17 05:49:48;;;;;;;9.83;4.27;;;;;;;6.88;100.00;98335.02;1793706;79;21025;-74
2022/04/17 05:52:17;;;;;;;14.63;6.33;;;;;;;6.86;100.00;98342.45;1807479;79;21010;-73
2022/04/17 05:54:44;;;;;;;15.33;6.37;;;;;;;6.83;100.00;98343.64;1811600;79;20978;-75
2022/04/17 05:57:11;;;;;;;12.20;5.57;;;;;;;6.82;100.00;98344.16;1784630;79;20994;-74
2022/04/17 05:59:38;;;;;;;10.20;5.10;;;;;;;6.85;100.00;98350.99;1787374;80;21057;-74
2022/04/17 06:02:08;;;;;;;7.60;4.20;;;;;;;6.93;100.00;98356.78;1787420;80;21027;-73
2022/04/17 06:04:36;;;;;;;8.90;4.90;;;;;;;6.93;100.00;98371.56;1756933;80;21065;-74
2022/04/17 06:07:04;;;;;;;13.47;5.50;;;;;;;7.00;100.00;98383.22;1757183;80;21042;-74
2022/04/17 06:09:31;;;;;;;20.67;7.60;;;;;;;7.11;100.00;98380.03;1815944;79;21557;-73
2022/04/17 06:12:00;;;;;;;8.13;4.43;;;;;;;7.22;100.00;98376.87;1784673;79;21036;-74
2022/04/17 06:14:27;;;;;;;8.23;4.77;;;;;;;7.28;100.00;98377.95;1815228;79;21104;-74
2022/04/17 06:16:56;;;;;;;6.77;4.20;;;;;;;7.32;100.00;98389.16;1784959;79;21123;-75
2022/04/17 06:19:23;;;;;;;8.40;4.43;;;;;;;7.37;100.00;98389.43;1817334;79;21009;-75
2022/04/17 06:21:52;;;;;;;12.50;5.17;;;;;;;7.47;100.00;98385.92;1816593;79;21013;-75
2022/04/17 06:24:19;;;;;;;10.60;5.10;;;;;;;7.54;100.00;98385.96;1816043;79;21151;-75
2022/04/17 06:26:48;;;;;;;8.97;5.20;;;;;;;7.53;100.00;98403.14;1758689;79;21017;-74
2022/04/17 06:29:15;;;;;;;18.67;6.23;;;;;;;7.53;100.00;98421.45;1751490;80;21514;-75
2022/04/17 06:31:45;;;;;;;12.67;5.50;;;;;;;7.58;100.00;98428.44;1752841;81;20986;-75
2022/04/17 06:34:15;;;;;;;10.17;4.80;;;;;;;7.66;100.00;98434.19;1752288;82;21009;-75
2022/04/17 06:36:44;;;;;;;8.93;3.93;;;;;;;7.70;100.00;98444.05;1752611;82;21033;-75
2022/04/17 06:39:11;;;;;;;11.03;4.97;;;;;;;7.78;100.00;98453.36;1752470;82;21068;-74
2022/04/17 06:41:40;;;;;;;9.57;4.73;;;;;;;7.84;100.00;98449.89;1721041;82;21566;-75
2022/04/17 06:44:11;;;;;;;7.40;4.43;;;;;;;7.88;100.00;98461.95;1720790;82;21037;-74
2022/04/17 06:46:37;;;;;;;15.00;6.03;;;;;;;7.87;100.00;98462.97;1720779;82;21566;-75
2022/04/17 06:49:04;;;;;;;40.27;17.30;;;;;;;7.79;100.00;98476.53;1752046;81;21030;-74
2022/04/17 06:51:32;;;;;;;10.37;5.23;;;;;;;7.74;100.00;98474.44;1752372;82;21029;-74
2022/04/17 06:53:59;;;;;;;10.10;4.60;;;;;;;7.72;100.00;98485.05;1756075;81;21072;-76
2022/04/17 06:56:26;;;;;;;6.60;4.40;;;;;;;7.67;100.00;98492.89;1734076;83;21058;-74
2022/04/17 06:58:56;;;;;;;6.73;3.87;;;;;;;7.64;100.00;98500.81;1765972;81;21057;-73
2022/04/17 07:01:25;;;;;;;16.23;6.47;;;;;;;7.64;100.00;98509.40;1765418;81;21533;-75
2022/04/17 07:03:52;;;;;;;15.80;5.73;;;;;;;7.68;100.00;98510.68;1765971;81;20990;-75
2022/04/17 07:06:20;;;;;;;9.27;4.47;;;;;;;7.71;100.00;98524.58;1733810;83;21017;-74
2022/04/17 07:08:47;;;;;;;11.60;4.80;;;;;;;7.74;100.00;98526.08;1765356;81;21065;-75
2022/04/17 07:11:19;;;;;;;28.97;8.63;;;;;;;7.73;100.00;98532.47;1766122;81;21022;-74
2022/04/17 07:13:45;;;;;;;14.30;5.80;;;;;;;7.65;100.00;98544.67;1766726;81;21489;-75
2022/04/17 07:16:14;;;;;;;13.33;4.97;;;;;;;7.60;100.00;98544.74;1734307;81;21041;-75
2022/04/17 07:18:42;;;;;;;17.23;5.87;;;;;;;7.60;100.00;98556.84;1713621;83;21031;-76
2022/04/17 07:21:11;;;;;;;9.77;4.10;;;;;;;7.61;100.00;98564.39;1765787;81;21030;-75
2022/04/17 07:23:38;;;;;;;14.33;4.80;;;;;;;7.58;100.00;98561.59;1734333;81;21714;-75
2022/04/17 07:26:07;;;;;;;16.10;5.83;;;;;;;7.58;100.00;98562.93;1765377;81;21029;-75
2022/04/17 07:28:37;;;;;;;12.33;5.40;;;;;;;7.64;100.00;98559.17;1762983;79;20989;-76
2022/04/17 07:31:04;;;;;;;12.50;4.90;;;;;;;7.65;100.00;98561.67;1814322;79;21021;-75
2022/04/17 07:33:32;;;;;;;21.10;6.93;;;;;;;7.71;100.00;98561.42;1780753;80;21045;-74
2022/04/17 07:36:02;;;;;;;18.00;6.27;;;;;;;7.78;100.00;98559.64;1786825;80;21558;-74
2022/04/17 07:38:31;;;;;;;9.13;4.30;;;;;;;7.81;100.00;98547.16;1786959;80;21025;-75
2022/04/17 07:41:00;;;;;;;14.10;5.27;;;;;;;7.78;100.00;98541.63;1786751;80;21029;-73
2022/04/17 07:43:28;;;;;;;13.93;5.23;;;;;;;7.76;100.00;98541.52;1786722;80;21060;-75
2022/04/17 07:45:55;;;;;;;10.47;4.33;;;;;;;7.75;100.00;98541.18;1787043;80;21032;-74
2022/04/17 07:48:24;;;;;;;14.67;5.43;;;;;;;7.72;100.00;98538.37;1786946;80;21033;-74
2022/04/17 07:50:54;;;;;;;6.10;3.60;;;;;;;7.73;100.00;98537.33;1787488;80;20982;-74
2022/04/17 07:53:21;;;;;;;16.70;5.63;;;;;;;7.78;100.00;98539.47;1787772;80;21060;-76
2022/04/17 07:55:50;;;;;;;17.10;6.37;;;;;;;7.77;100.00;98539.13;1782610;80;21088;-75
2022/04/17 07:58:31;;;;;;;16.70;5.80;;;;;;;7.80;100.00;98527.47;1781852;80;21041;-75
2022/04/17 08:01:10;;;;;;;11.05;4.92;;;;;;;7.88;100.00;98535.96;1779342;81;21538;-75
2022/04/17 08:03:37;;;;;;;12.83;5.07;;;;;;;7.91;100.00;98536.08;1748700;82;21011;-75
2022/04/17 08:06:07;;;;;;;10.93;4.90;;;;;;;7.92;100.00;98531.85;1679835;85;21043;-75
2022/04/17 08:08:37;;;;;;;11.17;5.33;;;;;;;7.98;100.00;98532.94;1699711;84;21112;-75
2022/04/17 08:11:07;;;;;;;12.80;5.30;;;;;;;7.98;100.00;98538.33;1709955;84;21127;-75
2022/04/17 08:13:34;;;;;;;11.03;4.97;;;;;;;7.99;100.00;98548.08;1710151;84;21104;-74
2022/04/17 08:16:02;;;;;;;18.60;7.17;;;;;;;7.98;100.00;98548.60;1686090;84;21065;-73
2022/04/17 08:18:37;;;;;;;16.70;6.83;;;;;;;8.04;100.00;98553.73;1710151;84;21005;-75
2022/04/17 08:21:05;;;;;;;15.97;5.73;;;;;;;8.08;100.00;98555.52;1699041;84;21127;-72
2022/04/17 08:23:37;;;;;;;8.17;4.60;;;;;;;8.11;100.00;98553.77;1698244;84;21497;-74
2022/04/17 08:26:09;;;;;;;11.27;4.83;;;;;;;8.10;100.00;98558.85;1697042;84;21174;-76
2022/04/17 08:28:36;;;;;;;18.73;6.90;;;;;;;8.06;100.00;98593.92;1697157;84;21202;-75
2022/04/17 08:31:03;;;;;;;16.40;5.73;;;;;;;8.05;100.00;98611.08;1696003;84;21131;-74
2022/04/17 08:33:32;;;;;;;21.77;8.73;;;;;;;8.19;100.00;98614.24;1704792;83;21102;-74
2022/04/17 08:35:59;;;;;;;12.17;5.17;;;;;;;8.31;100.00;98630.74;1700725;83;21048;-75
2022/04/17 08:38:27;;;;;;;20.73;6.53;;;;;;;8.42;100.00;98654.50;1725436;83;21079;-75
2022/04/17 08:40:57;;;;;;;22.50;7.40;;;;;;;8.44;100.00;98678.03;1717482;82;21092;-73
2022/04/17 08:43:27;;;;;;;11.47;4.73;;;;;;;8.49;100.00;98709.28;1733181;81;21054;-75
2022/04/17 08:45:55;;;;;;;14.77;4.70;;;;;;;8.57;100.00;98742.03;1733147;82;21097;-74
2022/04/17 08:48:22;;;;;;;14.80;4.90;;;;;;;8.69;100.00;98768.80;1757649;82;21026;-74
2022/04/17 08:50:54;;;;;;;20.33;6.30;;;;;;;8.72;100.00;98799.39;1757576;82;21555;-74
2022/04/17 08:53:21;;;;;;;21.90;6.67;;;;;;;8.74;100.00;98838.28;1675029;84;21020;-74
2022/04/17 08:55:51;;;;;;;10.67;4.23;;;;;;;8.72;100.00;98877.55;1674926;84;21022;-73
2022/04/17 08:58:18;;;;;;;17.20;5.40;;;;;;;8.71;100.00;98900.15;1690741;85;21094;-74
2022/04/17 09:00:47;;;;;;;19.10;5.87;;;;;;;8.80;100.00;98913.02;1723069;83;21074;-73
2022/04/17 09:03:18;;;;;;;11.20;4.23;;;;;;;8.91;100.00;98936.80;1671358;83;22417;-73
2022/04/17 09:05:47;;;;;;;15.63;5.80;;;;;;;9.05;100.00;98953.16;1685870;83;21066;-75
2022/04/17 09:10:55;;;;;;;12.27;4.80;;;;;;;9.15;100.00;99009.48;1629944;88;21569;-74
2022/04/17 09:13:32;;;;;;;9.10;4.62;;;;;;;9.18;100.00;99033.39;1603582;89;21038;-74
2022/04/17 09:16:02;;;;;;;12.80;5.60;;;;;;;9.24;100.00;99055.06;1562780;89;21085;-74
2022/04/17 09:18:32;;;;;;;16.15;7.30;;;;;;;9.23;100.00;99076.30;1581839;88;21042;-72
2022/04/17 09:23:38;;;;;;;16.37;8.70;;;;;;;9.17;100.00;99114.83;1552866;92;21138;-73
2022/04/17 09:26:06;;;;;;;21.03;9.80;;;;;;;9.16;100.00;99117.19;1534030;92;21175;-73
2022/04/17 09:28:38;;;;;;;15.17;7.33;;;;;;;9.12;100.00;99137.46;1515612;94;21139;-73
2022/04/17 09:31:13;;;;;;;16.17;8.50;;;;;;;9.13;100.00;99145.34;1522199;94;21073;-73
2022/04/17 09:33:42;;;;;;;16.13;8.13;;;;;;;9.20;100.00;99151.37;1527978;92;21114;-73
2022/04/17 09:36:09;;;;;;;13.83;8.00;;;;;;;9.26;100.00;99164.97;1551276;92;21247;-73
2022/04/17 09:38:36;;;;;;;24.27;13.50;;;;;;;9.28;100.00;99180.97;1556591;90;21094;-73
2022/04/17 09:43:42;;;;;;;12.23;7.50;;;;;;;9.12;100.00;99212.45;1602607;89;21099;-75
2022/04/17 09:46:10;;;;;;;20.00;11.00;;;;;;;9.00;100.00;99230.61;1602431;89;21068;-73
2022/04/17 09:48:43;;;;;;;7.17;5.43;;;;;;;8.83;100.00;99236.09;1602637;89;21112;-74
2022/04/17 09:51:25;;;;;;;5.73;4.37;;;;;;;8.76;100.00;99243.74;1619848;88;21073;-74
2022/04/17 09:54:05;;;;;;;8.63;6.00;;;;;;;8.73;100.00;99240.91;1594127;90;21114;-74
2022/04/17 09:56:40;;;;;;;10.13;5.90;;;;;;;8.68;100.00;99237.39;1593666;90;21625;-73
2022/04/17 09:59:20;;;;;;;;;;;;;;;8.69;100.00;99232.83;1575368;90;21116;-74
2022/04/17 10:01:52;;;;;;;10.03;5.10;;;;;;;8.69;100.00;99233.69;1593536;90;20424;-73
2022/04/17 10:04:24;;;;;;;8.77;4.73;;;;;;;8.64;100.00;99244.16;1593710;90;21088;-73
2022/04/17 10:06:53;;;;;;;6.77;4.87;;;;;;;8.68;100.00;99246.00;1600740;88;21070;-73
2022/04/17 10:09:22;;;;;;;5.37;3.20;;;;;;;8.69;100.00;99251.70;1634388;88;21103;-73
2022/04/17 10:11:51;;;;;;;4.53;3.70;;;;;;;8.70;100.00;99264.17;1611628;88;21097;-73
2022/04/17 10:14:19;;;;;;;12.90;6.27;;;;;;;8.70;100.00;99265.52;1634385;88;21197;-74
2022/04/17 10:16:48;;;;;;;8.23;4.10;;;;;;;8.79;100.00;99257.70;1639386;86;21061;-74
2022/04/17 10:19:17;;;;;;;8.30;5.10;;;;;;;8.91;100.00;99266.23;1654117;83;21122;-74
2022/04/17 10:21:46;;;;;;;5.03;3.53;;;;;;;8.95;100.00;99270.75;1693712;85;21067;-73
2022/04/17 10:24:19;;;;;;;11.47;6.30;;;;;;;8.95;100.00;99283.71;1694078;85;21043;-74
2022/04/17 10:26:49;;;;;;;12.47;6.30;;;;;;;8.94;100.00;99287.41;1627578;88;21070;-74
2022/04/17 10:29:42;;;;;;;7.47;4.20;;;;;;;8.91;100.00;99289.97;1628112;88;21087;-74
2022/04/17 10:32:53;;;;;;;5.73;4.40;;;;;;;8.98;100.00;99291.45;1627804;88;21027;-74
2022/04/17 10:35:40;;;;;;;14.23;6.73;;;;;;;9.00;100.00;99301.55;1579831;89;21122;-73
2022/04/17 10:38:28;;;;;;;11.83;6.37;;;;;;;9.02;100.00;99304.90;1597918;90;21176;-76
2022/04/17 10:41:04;;;;;;;8.83;5.17;;;;;;;9.03;100.00;99305.23;1601033;90;21117;-74
2022/04/17 10:43:34;;;;;;;8.97;4.27;;;;;;;9.06;100.00;99312.12;1595717;90;21080;-74
2022/04/17 10:46:13;;;;;;;11.90;6.17;;;;;;;9.09;100.00;99300.98;1612263;88;21164;-73
2022/04/17 10:48:55;;;;;;;7.40;4.50;;;;;;;9.10;100.00;99315.64;1626621;88;21107;-75
2022/04/17 10:51:32;;;;;;;10.95;5.28;;;;;;;9.18;100.00;99317.42;1652692;87;21060;-74
2022/04/17 10:54:13;;;;;;;8.23;4.53;;;;;;;9.24;100.00;99314.52;1653316;87;21136;-73
2022/04/17 10:56:57;;;;;;;8.03;3.90;;;;;;;9.18;100.00;99328.22;1652298;87;21558;-75
2022/04/17 10:59:32;;;;;;;10.13;4.75;;;;;;;9.14;100.00;99337.70;1628933;88;21107;-74
2022/04/17 11:02:19;;;;;;;9.73;4.10;;;;;;;9.13;100.00;99348.14;1608393;89;21547;-73
2022/04/17 11:04:53;;;;;;;11.23;4.83;;;;;;;9.17;100.00;99348.14;1608054;89;21090;-74
2022/04/17 11:07:23;;;;;;;10.80;4.65;;;;;;;9.23;100.00;99353.31;1587775;87;21042;-76
2022/04/17 11:10:18;;;;;;;8.90;4.80;;;;;;;9.31;100.00;99341.96;1587106;90;21611;-74
2022/04/17 11:12:55;;;;;;;11.03;5.55;;;;;;;9.30;100.00;99339.44;1526320;93;21170;-74
2022/04/17 11:15:27;;;;;;;11.23;6.03;;;;;;;9.26;100.00;99343.49;1525976;92;21059;-73
2022/04/17 11:17:58;;;;;;;7.77;4.07;;;;;;;9.25;100.00;99353.97;1508068;94;21112;-74
2022/04/17 11:20:25;;;;;;;11.43;5.17;;;;;;;9.19;100.00;99358.72;1508015;94;21133;-74
2022/04/17 11:22:52;;;;;;;12.67;5.70;;;;;;;9.04;100.00;99363.53;1500018;92;21083;-74
2022/04/17 11:25:20;;;;;;;5.33;3.77;;;;;;;8.99;100.00;99362.39;1560057;92;21115;-74
2022/04/17 11:27:51;;;;;;;8.43;4.77;;;;;;;8.98;100.00;99360.70;1566574;90;21035;-74
2022/04/17 11:30:23;;;;;;;9.87;4.80;;;;;;;8.96;100.00;99370.34;1596190;90;21078;-74
2022/04/17 11:32:52;;;;;;;8.00;4.63;;;;;;;8.92;100.00;99369.86;1595986;89;21122;-75
2022/04/17 11:35:23;;;;;;;5.77;3.93;;;;;;;8.91;100.00;99361.94;1604148;86;21029;-76
2022/04/17 11:38:01;;;;;;;8.33;4.50;;;;;;;8.81;100.00;99370.75;1559031;92;21054;-74
2022/04/17 11:40:33;;;;;;;5.40;3.67;;;;;;;8.70;100.00;99367.42;1592036;90;21060;-74
2022/04/17 11:43:10;;;;;;;5.03;3.43;;;;;;;8.66;100.00;99363.41;1612801;89;21068;-73
2022/04/17 11:45:38;;;;;;;8.33;5.10;;;;;;;8.68;100.00;99355.98;1611091;89;21147;-74
2022/04/17 11:48:10;;;;;;;11.43;6.73;;;;;;;8.71;100.00;99352.94;1612529;88;21711;-74
2022/04/17 11:50:37;;;;;;;11.35;5.58;;;;;;;8.72;100.00;99356.47;1639437;87;21046;-75
2022/04/17 11:53:15;;;;;;;5.60;3.90;;;;;;;8.69;100.00;99357.67;1597694;89;21147;-75
2022/04/17 11:55:44;;;;;;;4.90;4.23;;;;;;;8.66;100.00;99355.84;1601214;89;21132;-74
2022/04/17 11:58:14;;;;;;;9.57;4.37;;;;;;;8.56;100.00;99360.08;1590685;90;21094;-74
2022/04/17 12:00:42;;;;;;;8.77;4.17;;;;;;;8.44;100.00;99362.30;1620348;89;21057;-74